DIAP/ABJ METAR and TAF weather

Enter ICAO airport designator
Station Type Date Time Source
DIAP METAR 2018/01/22 20:00 UTC NOAA

DIAP 222000Z 23006KT 8000 NSC 28/25 Q1010 NOSIG


Station Type Date Time Source
DIAP Decoded METAR 2018/01/22 20:00 UTC NOAA

Abidjan, Cote d'Ivoire (DIAP) 05-15N 003-56W 8M
Jan 22, 2018 - 03:00 PM EST / 2018.01.22 2000 UTC
Wind: from the SW (230 degrees) at 7 MPH (6 KT):0
Visibility: 4 mile(s):0
Temperature: 82 F (28 C)
Dew Point: 77 F (25 C)
Relative Humidity: 83%
Pressure (altimeter): 29.83 in. Hg (1010 hPa)
ob: DIAP 222000Z 23006KT 8000 NSC 28/25 Q1010 NOSIG
cycle: 20

Station Type Date Time Source
DIAP TAF 2018/01/22 18:46 UTC NOAA

TAF DIAP 221700Z 2218/2324 24008KT 7000 FEW012 PROB30 2302/2308 VRB02KT 2000 BR BKN010 PROB30
TEMPO 2312/2318 BKN012


Example: see airport list